createdAt,value
2022-12-04T00:02:54.460Z,101944.09
2022-12-04T00:07:57.473Z,101948.28
2022-12-04T00:12:53.410Z,101945.75
2022-12-04T00:17:44.377Z,101946.53
2022-12-04T00:22:41.003Z,101938.81
2022-12-04T00:27:37.104Z,101939.50
2022-12-04T00:32:37.295Z,101928.13
2022-12-04T00:37:30.544Z,101925.22
2022-12-04T00:42:25.624Z,101914.78
2022-12-04T00:47:24.025Z,101920.75
2022-12-04T00:52:15.083Z,101918.19
2022-12-04T00:57:10.376Z,101913.28
2022-12-04T01:02:04.257Z,101923.66
2022-12-04T01:07:04.636Z,101924.53
2022-12-04T01:12:03.159Z,101930.50
2022-12-04T01:16:56.832Z,101929.81
2022-12-04T01:21:48.653Z,101923.84
2022-12-04T01:26:43.064Z,101932.16
2022-12-04T01:31:38.597Z,101935.59
2022-12-04T01:36:44.950Z,101938.13
2022-12-04T01:41:38.162Z,101924.44
2022-12-04T01:46:36.513Z,101921.69
2022-12-04T01:51:28.575Z,101925.13
2022-12-04T01:56:35.162Z,101913.09
2022-12-04T02:01:32.897Z,101912.31
2022-12-04T02:06:31.438Z,101916.13
2022-12-04T02:11:32.584Z,101918.78
2022-12-04T02:16:27.010Z,101908.59
2022-12-04T02:21:27.269Z,101908.81
2022-12-04T02:26:33.923Z,101900.41
2022-12-04T02:31:35.916Z,101909.94
2022-12-04T02:36:33.684Z,101905.56
2022-12-04T02:41:30.649Z,101899.69
2022-12-04T02:46:24.003Z,101891.88
2022-12-04T02:51:35.354Z,101886.69
2022-12-04T02:56:33.312Z,101895.88
2022-12-04T03:01:29.420Z,101895.88
2022-12-04T03:06:38.725Z,101899.41
2022-12-04T03:11:30.334Z,101892.56
2022-12-04T03:16:24.941Z,101899.41
2022-12-04T03:21:19.701Z,101891.19
2022-12-04T03:26:16.432Z,101890.41
2022-12-04T03:31:18.880Z,101883.66
2022-12-04T03:36:16.692Z,101881.31
2022-12-04T03:41:17.426Z,101870.94
2022-12-04T03:46:15.975Z,101869.41
2022-12-04T03:51:11.513Z,101866.66
2022-12-04T03:56:06.156Z,101866.25
2022-12-04T04:01:06.794Z,101859.34
2022-12-04T04:06:18.330Z,101862.84
2022-12-04T04:11:14.684Z,101869.81
2022-12-04T04:16:20.003Z,101861.38
2022-12-04T04:21:33.635Z,101857.19
2022-12-04T04:26:36.483Z,101861.75
2022-12-04T04:31:36.654Z,101853.13
2022-12-04T04:36:38.599Z,101860.09
2022-12-04T04:41:36.960Z,101865.09
2022-12-04T04:46:32.146Z,101875.44
2022-12-04T04:51:25.385Z,101871.22
2022-12-04T04:56:19.992Z,101866.22
2022-12-04T05:01:16.255Z,101862.81
2022-12-04T05:06:20.993Z,101868.59
2022-12-04T05:11:15.717Z,101874.56
2022-12-04T05:16:15.673Z,101868.78
2022-12-04T05:21:20.228Z,101871.31
2022-12-04T05:26:15.009Z,101871.31
2022-12-04T05:31:09.601Z,101880.75
2022-12-04T05:36:06.872Z,101878.28
2022-12-04T05:41:03.398Z,101874.06
2022-12-04T05:51:11.564Z,101883.38
2022-12-04T05:56:03.277Z,101875.81
2022-12-04T06:00:57.705Z,101883.44
2022-12-04T06:05:48.327Z,101873.97
2022-12-04T06:10:43.969Z,101878.19
2022-12-04T06:15:38.163Z,101873.00
2022-12-04T06:20:33.407Z,101873.78
2022-12-04T06:25:24.217Z,101868.91
2022-12-04T06:30:23.960Z,101867.41
2022-12-04T06:35:19.150Z,101868.28
2022-12-04T06:40:12.567Z,101870.94
2022-12-04T06:45:07.117Z,101859.97
2022-12-04T06:50:04.855Z,101861.81
2022-12-04T06:54:59.471Z,101859.97
2022-12-04T06:59:50.799Z,101866.72
2022-12-04T07:04:49.266Z,101861.44
2022-12-04T07:09:43.858Z,101864.69
2022-12-04T07:14:41.656Z,101873.19
2022-12-04T07:19:35.038Z,101875.75
2022-12-04T07:24:31.789Z,101878.38
2022-12-04T07:29:31.003Z,101883.38
2022-12-04T07:34:25.418Z,101881.00
2022-12-04T07:39:19.209Z,101884.41
2022-12-04T07:44:10.123Z,101890.38
2022-12-04T07:49:09.754Z,101897.34
2022-12-04T07:54:06.381Z,101895.59
2022-12-04T07:59:03.375Z,101897.44
2022-12-04T08:03:54.820Z,101905.16
2022-12-04T08:08:53.804Z,101899.19
2022-12-04T08:13:51.021Z,101897.44
2022-12-04T08:18:52.738Z,101903.47
2022-12-04T08:23:45.584Z,101908.78
2022-12-04T08:29:02.603Z,101909.84
2022-12-04T08:34:05.528Z,101921.88
2022-12-04T08:39:04.651Z,101923.53
2022-12-04T08:44:04.499Z,101930.47
2022-12-04T08:49:13.937Z,101931.25
2022-12-04T08:54:10.088Z,101930.59
2022-12-04T09:04:14.739Z,101924.72
2022-12-04T09:09:08.387Z,101929.09
2022-12-04T09:14:05.598Z,101930.06
2022-12-04T09:18:59.279Z,101934.47
2022-12-04T09:23:55.013Z,101926.13
2022-12-04T09:28:47.416Z,101929.69
2022-12-04T09:33:43.214Z,101923.00
2022-12-04T09:38:40.859Z,101929.06
2022-12-04T09:43:38.855Z,101932.47
2022-12-04T09:48:33.995Z,101934.44
2022-12-04T09:53:28.537Z,101931.97
2022-12-04T09:58:23.339Z,101933.06
2022-12-04T10:03:21.508Z,101930.81
2022-12-04T10:11:44.317Z,101922.38
2022-12-04T10:16:43.111Z,101920.00
2022-12-04T10:21:46.685Z,101920.13
2022-12-04T10:26:45.752Z,101920.13
2022-12-04T10:31:37.898Z,101925.28
2022-12-04T10:36:32.500Z,101921.78
2022-12-04T10:41:29.954Z,101919.41
2022-12-04T10:46:31.551Z,101912.66
2022-12-04T10:51:29.614Z,101915.28
2022-12-04T10:56:22.992Z,101907.63
2022-12-04T11:01:16.219Z,101909.31
2022-12-04T11:06:12.719Z,101894.03
2022-12-04T11:11:05.769Z,101890.44
2022-12-04T11:16:00.782Z,101895.72
2022-12-04T11:20:56.108Z,101904.94
2022-12-04T11:25:59.343Z,101897.56
2022-12-04T11:30:55.305Z,101902.91
2022-12-04T11:35:50.055Z,101896.59
2022-12-04T11:40:43.369Z,101879.63
2022-12-04T11:45:36.530Z,101874.47
2022-12-04T11:50:34.536Z,101876.34
2022-12-04T11:55:29.626Z,101863.78
2022-12-04T12:00:22.718Z,101855.84
2022-12-04T12:05:35.785Z,101853.22
2022-12-04T12:10:33.800Z,101856.72
2022-12-04T12:15:30.707Z,101860.16
2022-12-04T12:20:34.754Z,101856.66
2022-12-04T12:25:32.052Z,101863.41
2022-12-04T12:30:24.325Z,101867.63
2022-12-04T12:35:24.902Z,101856.66
2022-12-04T12:40:19.018Z,101852.16
2022-12-04T12:45:23.327Z,101858.81
2022-12-04T12:50:17.917Z,101851.28
2022-12-04T12:55:18.217Z,101846.69
2022-12-04T13:00:18.712Z,101837.81
2022-12-04T13:05:15.149Z,101829.44
2022-12-04T13:10:11.746Z,101829.31
2022-12-04T13:15:05.902Z,101827.75
2022-12-04T13:20:09.905Z,101817.75
2022-12-04T13:25:10.269Z,101813.53
2022-12-04T13:30:09.485Z,101798.16
2022-12-04T13:35:12.307Z,101798.97
2022-12-04T13:40:18.919Z,101814.03
2022-12-04T13:45:14.108Z,101808.28
2022-12-04T14:05:52.941Z,101819.78
2022-12-04T14:10:43.851Z,101829.34
2022-12-04T14:15:36.023Z,101815.84
2022-12-04T14:20:28.943Z,101827.25
2022-12-04T14:25:38.558Z,101824.78
2022-12-04T14:30:32.676Z,101828.31
2022-12-04T14:35:26.596Z,101825.66
2022-12-04T14:40:25.779Z,101826.81
2022-12-04T14:45:27.332Z,101826.72
2022-12-04T14:50:22.579Z,101832.78
2022-12-04T14:55:24.100Z,101832.09
2022-12-04T15:00:21.547Z,101833.78
2022-12-04T15:05:22.453Z,101828.50
2022-12-04T15:10:33.352Z,101824.34
2022-12-04T15:15:25.972Z,101823.66
2022-12-04T15:20:24.341Z,101826.31
2022-12-04T15:25:24.895Z,101816.91
2022-12-04T15:30:19.217Z,101826.50
2022-12-04T15:35:13.954Z,101827.38
2022-12-04T15:40:10.476Z,101840.88
2022-12-04T15:45:04.210Z,101840.97
2022-12-04T15:49:57.976Z,101844.41
2022-12-04T15:54:54.445Z,101857.22
2022-12-04T15:59:58.218Z,101855.47
2022-12-04T16:04:53.273Z,101857.22
2022-12-04T16:10:02.847Z,101865.72
2022-12-04T16:15:05.018Z,101870.13
2022-12-04T16:19:55.620Z,101871.00
2022-12-04T16:24:50.578Z,101869.34
2022-12-04T16:29:41.613Z,101867.69
2022-12-04T16:34:36.041Z,101861.69
2022-12-04T16:39:41.330Z,101872.41
2022-12-04T16:44:34.995Z,101873.28
2022-12-04T16:49:25.542Z,101869.16
2022-12-04T16:54:21.029Z,101868.28
2022-12-04T16:59:18.314Z,101867.41
2022-12-04T17:04:11.211Z,101863.97
2022-12-04T17:09:04.237Z,101880.66
2022-12-04T17:13:56.857Z,101880.66
2022-12-04T17:18:47.484Z,101880.38
2022-12-04T17:23:41.807Z,101872.13
2022-12-04T17:28:32.810Z,101876.25
2022-12-04T17:33:27.826Z,101877.75
2022-12-04T17:38:18.404Z,101894.69
2022-12-04T17:43:09.072Z,101895.28
2022-12-04T17:47:59.376Z,101893.44
2022-12-04T17:52:52.924Z,101895.72
2022-12-04T17:57:46.031Z,101905.88
2022-12-04T18:02:37.846Z,101904.34
2022-12-04T18:07:29.868Z,101907.13
2022-12-04T18:12:23.023Z,101904.69
2022-12-04T18:17:15.673Z,101911.72
2022-12-04T18:22:08.928Z,101915.41
2022-12-04T18:26:59.803Z,101915.63
2022-12-04T18:31:54.973Z,101906.19
2022-12-04T18:36:46.240Z,101902.97
2022-12-04T18:41:38.583Z,101913.94
2022-12-04T18:46:30.404Z,101921.59
2022-12-04T18:51:24.612Z,101908.06
2022-12-04T18:56:15.394Z,101909.09
2022-12-04T19:01:08.481Z,101905.78
2022-12-04T19:06:03.057Z,101912.72
2022-12-04T19:11:01.450Z,101895.84
2022-12-04T19:15:52.490Z,101906.31
2022-12-04T19:20:48.113Z,101912.47
2022-12-04T19:25:41.904Z,101904.94
2022-12-04T19:30:36.449Z,101905.09
2022-12-04T19:35:26.803Z,101901.78
2022-12-04T19:40:18.130Z,101910.47
2022-12-04T19:45:15.436Z,101923.28
2022-12-04T19:50:09.250Z,101914.88
2022-12-04T19:55:00.450Z,101914.06
2022-12-04T19:59:51.124Z,101917.59
2022-12-04T20:04:42.351Z,101913.38
2022-12-04T20:09:37.995Z,101917.78
2022-12-04T20:14:30.078Z,101916.19
2022-12-04T20:19:21.769Z,101917.25
2022-12-04T20:24:14.600Z,101921.63
2022-12-04T20:29:12.009Z,101917.41
2022-12-04T20:34:04.833Z,101921.72
2022-12-04T20:38:58.712Z,101925.34
2022-12-04T20:43:52.633Z,101920.25
2022-12-04T20:48:48.973Z,101921.19
2022-12-04T20:53:43.314Z,101913.38
2022-12-04T20:58:37.684Z,101914.88
2022-12-04T21:03:28.205Z,101895.09
2022-12-04T21:08:41.336Z,101854.84
2022-12-04T21:13:44.273Z,101925.84
2022-12-04T21:18:40.336Z,101929.63
2022-12-04T21:23:37.390Z,101930.34
2022-12-04T21:28:29.172Z,101918.13
2022-12-04T21:33:20.912Z,101940.63
2022-12-04T21:38:14.718Z,101923.28
2022-12-04T21:43:10.169Z,101921.28
2022-12-04T21:48:01.400Z,101932.19
2022-12-04T21:52:53.646Z,101932.44
2022-12-04T21:57:44.421Z,101931.66
2022-12-04T22:02:38.274Z,101915.63
2022-12-04T22:07:32.145Z,101911.94
2022-12-04T22:17:43.623Z,101922.75
2022-12-04T22:22:37.330Z,101931.28
2022-12-04T22:27:28.070Z,101912.28
2022-12-04T22:32:19.303Z,101907.03
2022-12-04T22:37:13.293Z,101918.25
2022-12-04T22:42:04.594Z,101915.63
2022-12-04T22:46:55.820Z,101907.97
2022-12-04T22:51:46.870Z,101915.97
2022-12-04T22:56:45.286Z,101919.66
2022-12-04T23:01:38.800Z,101928.38
2022-12-04T23:06:31.585Z,101928.44
2022-12-04T23:11:24.998Z,101925.28
2022-12-04T23:16:20.489Z,101907.97
2022-12-04T23:21:14.883Z,101911.97
2022-12-04T23:26:07.560Z,101911.28
2022-12-04T23:30:59.019Z,101905.22
2022-12-04T23:35:55.654Z,101909.59
2022-12-04T23:40:48.620Z,101905.56
2022-12-04T23:45:41.927Z,101909.06
2022-12-04T23:50:34.143Z,101907.38
2022-12-04T23:55:32.530Z,101907.44
